Midland, Nebraska
Current Conditions -  °F | °C
As of 2:15 PM on Monday 24 Nov 2014 (Local Time) from KAUH Reporting Station
Clear Clear  
Wind Chill: 29°   Ceiling: Unl
Heat Index: 38°   Visibility: 10mi
Dew Point:   Wind: 18mph
Humidity: 29%   Direction: 320°NW
Pressure: 29.86"   Gusts: 28mph
Location:  41.1769°N, 98.1165°W
Report Text: KAUH 242015Z AUTO 32016G24KT 10SM CLR 04/M13 A2986 RMK AO2 T00361131
Loading
Personal Weather Stations






























Interactive Weather Map New forecast layout! Learn more

10-Day Weather Forecast

Advertisements
Track Severe Weather on mobile